Time;durP1;ratioP1;P1;durP2;ratioP2;P2;SDS_P1;SDS_P2;PMS_P1;PMS_P2;Temp;Humidity;BMP_temperature;BMP_pressure;BME280_temperature;BME280_humidity;BME280_pressure;Samples;Min_cycle;Max_cycle;Signal;HPM_P1;HPM_P2
2023/10/14 00:00:28;;;;;;;4.68;1.20;;;;;;;;;;4982497;28;20027;-75
2023/10/14 00:02:53;;;;;;;4.05;0.90;;;;;;;;;;4983835;28;20048;-75
2023/10/14 00:05:22;;;;;;;0.93;0.70;;;;;;;;;;4983833;28;20460;-75
2023/10/14 00:07:50;;;;;;;1.40;0.65;;;;;;;;;;4983518;28;20023;-75
2023/10/14 00:10:16;;;;;;;3.10;0.70;;;;;;;;;;4985608;28;20042;-75
2023/10/14 00:12:41;;;;;;;0.82;0.73;;;;;;;;;;4991566;28;20038;-75
2023/10/14 00:15:08;;;;;;;0.98;0.50;;;;;;;;;;5012553;28;20039;-75
2023/10/14 00:17:37;;;;;;;0.40;0.40;;;;;;;;;;4988751;28;20057;-75
2023/10/14 00:20:03;;;;;;;1.15;0.43;;;;;;;;;;4999207;28;20466;-75
2023/10/14 00:22:29;;;;;;;0.70;0.50;;;;;;;;;;4985312;28;20076;-75
2023/10/14 00:24:58;;;;;;;0.60;0.50;;;;;;;;;;5003347;28;20080;-74
2023/10/14 00:27:24;;;;;;;1.10;0.68;;;;;;;;;;5003231;28;20030;-74
2023/10/14 00:29:53;;;;;;;2.45;0.60;;;;;;;;;;5005306;28;20045;-74
2023/10/14 00:32:30;;;;;;;1.63;0.60;;;;;;;;;;5007323;28;20073;-74
2023/10/14 00:34:55;;;;;;;1.50;0.77;;;;;;;;;;5007658;28;20025;-75
2023/10/14 00:37:20;;;;;;;0.45;0.40;;;;;;;;;;5005376;28;20041;-75
2023/10/14 00:39:54;;;;;;;2.38;0.60;;;;;;;;;;5006498;28;20023;-74
2023/10/14 00:42:20;;;;;;;1.60;1.10;;;;;;;;;;5007229;28;20037;-75
2023/10/14 00:44:46;;;;;;;5.53;1.58;;;;;;;;;;5007021;28;20038;-75
2023/10/14 00:47:15;;;;;;;4.70;1.00;;;;;;;;;;4994392;28;20029;-75
2023/10/14 00:49:42;;;;;;;5.40;1.27;;;;;;;;;;4985515;28;20045;-75
2023/10/14 00:52:15;;;;;;;6.18;1.63;;;;;;;;;;5001556;28;20153;-74
2023/10/14 00:54:58;;;;;;;5.97;2.00;;;;;;;;;;4987421;28;20062;-75
2023/10/14 00:57:24;;;;;;;5.00;1.25;;;;;;;;;;4987873;28;20345;-74
2023/10/14 00:59:51;;;;;;;8.25;1.48;;;;;;;;;;5006544;28;20556;-74
2023/10/14 01:02:29;;;;;;;11.05;1.58;;;;;;;;;;5005733;28;20500;-75
2023/10/14 01:04:56;;;;;;;3.72;1.42;;;;;;;;;;5005525;28;20029;-74
2023/10/14 01:07:24;;;;;;;9.27;1.80;;;;;;;;;;5004135;28;20038;-74
2023/10/14 01:09:52;;;;;;;4.30;1.67;;;;;;;;;;5006087;28;20133;-75
2023/10/14 01:12:40;;;;;;;10.55;1.83;;;;;;;;;;5006398;28;20100;-74
2023/10/14 01:15:21;;;;;;;3.67;1.67;;;;;;;;;;5005718;28;20038;-74
2023/10/14 01:17:48;;;;;;;7.43;2.00;;;;;;;;;;5006261;28;20202;-74
2023/10/14 01:22:57;;;;;;;9.98;2.25;;;;;;;;;;5001453;28;20049;-74
2023/10/14 01:25:26;;;;;;;11.97;2.60;;;;;;;;;;4986951;28;20038;-74
2023/10/14 01:27:52;;;;;;;3.28;1.77;;;;;;;;;;4985124;28;20520;-74
2023/10/14 01:30:25;;;;;;;7.88;1.85;;;;;;;;;;4986052;28;20517;-75
2023/10/14 01:32:51;;;;;;;6.03;2.10;;;;;;;;;;4988338;28;20136;-75
2023/10/14 01:37:55;;;;;;;7.47;2.15;;;;;;;;;;4998432;28;20033;-74
2023/10/14 01:42:56;;;;;;;14.68;3.03;;;;;;;;;;4988458;28;20045;-74
2023/10/14 01:45:31;;;;;;;10.90;2.43;;;;;;;;;;4985611;28;20121;-74
2023/10/14 01:48:33;;;;;;;10.70;2.00;;;;;;;;;;4986305;28;20270;-74
2023/10/14 01:50:56;;;;;;;8.00;2.03;;;;;;;;;;4983688;28;20046;-74
2023/10/14 01:53:23;;;;;;;11.90;2.63;;;;;;;;;;4986357;28;20034;-74
2023/10/14 01:55:52;;;;;;;8.82;2.17;;;;;;;;;;4984705;28;20032;-74
2023/10/14 01:58:22;;;;;;;11.48;1.88;;;;;;;;;;4995657;28;20124;-74
2023/10/14 02:00:58;;;;;;;6.30;2.08;;;;;;;;;;5004190;28;20057;-74
2023/10/14 02:03:24;;;;;;;5.97;2.15;;;;;;;;;;5002243;28;20052;-74
2023/10/14 02:05:53;;;;;;;12.88;2.13;;;;;;;;;;4985306;28;20034;-74
2023/10/14 02:08:23;;;;;;;5.43;1.65;;;;;;;;;;4985741;28;20045;-74
2023/10/14 02:10:50;;;;;;;15.38;2.30;;;;;;;;;;4984268;28;20061;-74
2023/10/14 02:13:19;;;;;;;8.93;2.13;;;;;;;;;;5002275;28;20679;-74
2023/10/14 02:15:46;;;;;;;12.85;2.30;;;;;;;;;;5005219;28;20051;-74
2023/10/14 02:18:20;;;;;;;7.72;1.98;;;;;;;;;;5004291;28;20577;-74
2023/10/14 02:21:05;;;;;;;11.52;2.58;;;;;;;;;;5005052;28;20418;-74
2023/10/14 02:23:45;;;;;;;5.80;1.35;;;;;;;;;;4993405;28;20030;-74
2023/10/14 02:26:16;;;;;;;9.00;1.60;;;;;;;;;;4985425;28;20392;-74
2023/10/14 02:28:47;;;;;;;9.57;2.10;;;;;;;;;;4983324;28;20040;-74
2023/10/14 02:31:17;;;;;;;8.98;1.50;;;;;;;;;;4983342;28;20076;-74
2023/10/14 02:33:47;;;;;;;11.02;2.08;;;;;;;;;;4983943;28;20137;-74
2023/10/14 02:36:16;;;;;;;8.30;2.78;;;;;;;;;;4984983;28;20121;-74
2023/10/14 02:38:44;;;;;;;6.35;1.77;;;;;;;;;;4985051;28;20034;-74
2023/10/14 02:41:10;;;;;;;9.93;1.80;;;;;;;;;;4985045;28;20026;-74
2023/10/14 02:43:38;;;;;;;7.13;1.67;;;;;;;;;;4999589;28;20521;-74
2023/10/14 02:46:10;;;;;;;10.50;1.55;;;;;;;;;;4985342;28;20041;-74
2023/10/14 02:48:55;;;;;;;4.43;1.42;;;;;;;;;;4985444;28;20469;-74
2023/10/14 02:51:41;;;;;;;6.35;1.50;;;;;;;;;;4984374;28;20050;-74
2023/10/14 02:54:14;;;;;;;7.50;1.55;;;;;;;;;;4990165;28;20092;-74
2023/10/14 02:56:58;;;;;;;7.20;1.70;;;;;;;;;;4997916;28;20046;-74
2023/10/14 02:59:43;;;;;;;9.70;1.60;;;;;;;;;;5008933;28;20033;-74
2023/10/14 03:04:49;;;;;;;13.80;1.70;;;;;;;;;;5004281;28;20044;-74
2023/10/14 03:07:28;;;;;;;12.25;1.75;;;;;;;;;;5002255;28;20034;-74
2023/10/14 03:10:11;;;;;;;9.10;1.80;;;;;;;;;;5003871;28;20062;-74
2023/10/14 03:12:40;;;;;;;7.07;1.52;;;;;;;;;;5003769;28;20038;-74
2023/10/14 03:15:19;;;;;;;7.38;1.42;;;;;;;;;;5002670;28;20034;-74
2023/10/14 03:18:07;;;;;;;8.35;1.52;;;;;;;;;;5003761;28;20026;-74
2023/10/14 03:20:34;;;;;;;10.80;2.03;;;;;;;;;;5004134;28;20479;-74
2023/10/14 03:23:23;;;;;;;9.98;1.80;;;;;;;;;;4997033;28;20421;-74
2023/10/14 03:26:12;;;;;;;7.25;1.35;;;;;;;;;;4984557;28;20042;-74
2023/10/14 03:28:38;;;;;;;7.55;0.95;;;;;;;;;;4983979;28;20038;-74
2023/10/14 03:31:07;;;;;;;9.98;1.25;;;;;;;;;;4984265;28;20035;-74
2023/10/14 03:33:42;;;;;;;5.00;1.15;;;;;;;;;;4983188;28;20050;-74
2023/10/14 03:36:15;;;;;;;5.38;1.40;;;;;;;;;;4992129;28;20129;-74
2023/10/14 03:38:42;;;;;;;5.97;1.57;;;;;;;;;;4983273;28;20034;-74
2023/10/14 03:41:18;;;;;;;5.45;1.77;;;;;;;;;;4982634;28;20433;-74
2023/10/14 03:46:41;;;;;;;8.80;2.10;;;;;;;;;;4992353;28;20639;-74
2023/10/14 03:49:20;;;;;;;7.25;1.65;;;;;;;;;;4992617;28;20124;-74
2023/10/14 03:51:52;;;;;;;7.55;1.30;;;;;;;;;;5003073;28;20732;-74
2023/10/14 03:54:23;;;;;;;11.32;1.70;;;;;;;;;;5003019;28;20154;-74
2023/10/14 03:56:50;;;;;;;8.90;1.70;;;;;;;;;;5003195;28;20042;-74
2023/10/14 03:59:23;;;;;;;11.68;1.63;;;;;;;;;;5003751;28;20504;-74
2023/10/14 04:01:57;;;;;;;7.88;1.60;;;;;;;;;;4994671;28;20086;-74
2023/10/14 04:04:24;;;;;;;9.05;1.48;;;;;;;;;;5003301;28;20049;-74
2023/10/14 04:09:39;;;;;;;4.65;1.42;;;;;;;;;;5007228;28;20697;-74
2023/10/14 04:12:08;;;;;;;7.80;1.88;;;;;;;;;;5008411;28;20037;-74
2023/10/14 04:14:37;;;;;;;8.95;1.55;;;;;;;;;;5009657;28;20097;-74
2023/10/14 04:17:11;;;;;;;7.75;1.70;;;;;;;;;;5020702;28;20041;-74
2023/10/14 04:19:48;;;;;;;10.48;2.08;;;;;;;;;;5016957;28;20037;-74
2023/10/14 04:25:38;;;;;;;2.90;1.10;;;;;;;;;;5007691;28;20034;-74
2023/10/14 04:27:54;;;;;;;6.95;1.80;;;;;;;;;;4981632;28;20042;-74
2023/10/14 04:33:22;;;;;;;4.55;1.48;;;;;;;;;;4987578;28;20061;-74
2023/10/14 04:36:19;;;;;;;6.22;1.50;;;;;;;;;;4987589;28;20062;-74
2023/10/14 04:38:43;;;;;;;9.48;1.63;;;;;;;;;;4987651;28;20039;-74
2023/10/14 04:41:16;;;;;;;10.52;2.03;;;;;;;;;;5002930;28;20037;-74
2023/10/14 04:46:16;;;;;;;4.50;1.20;;;;;;;;;;5001963;28;20034;-74
2023/10/14 04:48:50;;;;;;;4.40;1.65;;;;;;;;;;5005529;28;20030;-74
2023/10/14 04:51:16;;;;;;;6.25;1.42;;;;;;;;;;4987377;28;20042;-74
2023/10/14 04:53:46;;;;;;;5.93;1.50;;;;;;;;;;5000543;28;20033;-75
2023/10/14 04:56:18;;;;;;;5.20;1.27;;;;;;;;;;5006799;28;20045;-74
2023/10/14 04:58:46;;;;;;;8.80;1.42;;;;;;;;;;5006580;28;20053;-74
2023/10/14 05:01:17;;;;;;;6.10;1.42;;;;;;;;;;5005120;28;20030;-74
2023/10/14 05:03:43;;;;;;;3.50;1.30;;;;;;;;;;5005930;28;20058;-74
2023/10/14 05:08:44;;;;;;;4.28;1.40;;;;;;;;;;5006207;28;20480;-74
2023/10/14 05:11:15;;;;;;;8.57;1.83;;;;;;;;;;5005651;28;20591;-74
2023/10/14 05:13:42;;;;;;;9.68;1.95;;;;;;;;;;5006366;28;20065;-74
2023/10/14 05:16:16;;;;;;;6.75;1.80;;;;;;;;;;4985470;28;20050;-75
2023/10/14 05:18:48;;;;;;;4.13;1.67;;;;;;;;;;4986508;28;20061;-74
2023/10/14 05:21:34;;;;;;;10.17;1.93;;;;;;;;;;4986638;28;20046;-74
2023/10/14 05:23:59;;;;;;;9.13;1.92;;;;;;;;;;4986326;28;20046;-75
2023/10/14 05:26:27;;;;;;;8.82;2.13;;;;;;;;;;4984627;28;20030;-74
2023/10/14 05:28:53;;;;;;;9.20;1.60;;;;;;;;;;4987431;28;20112;-74
2023/10/14 05:31:18;;;;;;;10.57;1.67;;;;;;;;;;4987138;28;20054;-74
2023/10/14 05:33:44;;;;;;;12.30;2.03;;;;;;;;;;5000439;28;20034;-74
2023/10/14 05:36:09;;;;;;;6.95;1.33;;;;;;;;;;5011236;28;20042;-74
2023/10/14 05:38:34;;;;;;;8.35;1.33;;;;;;;;;;5019014;28;20033;-75
2023/10/14 05:41:00;;;;;;;7.70;1.90;;;;;;;;;;5012741;28;20473;-74
2023/10/14 05:43:26;;;;;;;7.05;1.58;;;;;;;;;;4999499;28;20042;-75
2023/10/14 05:45:52;;;;;;;8.18;1.92;;;;;;;;;;4996217;28;20038;-74
2023/10/14 05:48:18;;;;;;;4.72;1.70;;;;;;;;;;4999967;28;20034;-74
2023/10/14 05:50:44;;;;;;;10.75;2.47;;;;;;;;;;4998330;28;20521;-74
2023/10/14 05:53:10;;;;;;;12.13;1.52;;;;;;;;;;5004674;28;20087;-74
2023/10/14 05:55:35;;;;;;;8.18;1.80;;;;;;;;;;5004914;28;20108;-74
2023/10/14 05:58:01;;;;;;;8.00;1.80;;;;;;;;;;4997039;28;20441;-74
2023/10/14 06:00:27;;;;;;;8.43;1.92;;;;;;;;;;4983980;28;20623;-75
2023/10/14 06:02:57;;;;;;;11.70;2.58;;;;;;;;;;4984737;28;20038;-74
2023/10/14 06:05:25;;;;;;;15.63;2.25;;;;;;;;;;4983568;28;20038;-74
2023/10/14 06:07:59;;;;;;;7.55;1.75;;;;;;;;;;4985360;28;20033;-74
2023/10/14 06:10:36;;;;;;;10.73;1.95;;;;;;;;;;4984862;28;20042;-74
2023/10/14 06:13:05;;;;;;;12.07;1.83;;;;;;;;;;4985274;28;20053;-74
2023/10/14 06:15:32;;;;;;;9.65;1.70;;;;;;;;;;4994180;28;20068;-74
2023/10/14 06:17:58;;;;;;;9.55;1.60;;;;;;;;;;5002907;28;20122;-74
2023/10/14 06:20:23;;;;;;;11.05;1.67;;;;;;;;;;5002501;28;20174;-74
2023/10/14 06:22:50;;;;;;;9.90;2.15;;;;;;;;;;5005019;28;20116;-74
2023/10/14 06:25:16;;;;;;;6.82;1.98;;;;;;;;;;5002368;28;20049;-74
2023/10/14 06:27:46;;;;;;;9.55;1.88;;;;;;;;;;5000317;28;20085;-74
2023/10/14 06:30:19;;;;;;;6.40;1.48;;;;;;;;;;4984253;28;20053;-74
2023/10/14 06:32:47;;;;;;;7.38;1.52;;;;;;;;;;4983545;28;20060;-74
2023/10/14 06:35:17;;;;;;;10.05;2.15;;;;;;;;;;4983317;28;20034;-74
2023/10/14 06:37:45;;;;;;;9.88;1.85;;;;;;;;;;4983188;28;20054;-74
2023/10/14 06:40:17;;;;;;;5.78;1.80;;;;;;;;;;4984754;28;20301;-74
2023/10/14 06:42:44;;;;;;;8.38;1.90;;;;;;;;;;4985141;28;20069;-74
2023/10/14 06:45:14;;;;;;;8.07;2.00;;;;;;;;;;4984433;28;20042;-74
2023/10/14 06:47:47;;;;;;;8.05;1.80;;;;;;;;;;4983399;28;20089;-74
2023/10/14 06:50:13;;;;;;;8.88;1.95;;;;;;;;;;4983711;28;20030;-74
2023/10/14 06:52:40;;;;;;;7.80;2.03;;;;;;;;;;4984869;28;20038;-75
2023/10/14 06:55:07;;;;;;;4.70;1.67;;;;;;;;;;4984517;28;20038;-74
2023/10/14 06:57:36;;;;;;;8.23;1.73;;;;;;;;;;5007124;28;20061;-74
2023/10/14 07:00:12;;;;;;;8.43;1.70;;;;;;;;;;5020397;28;20026;-74
2023/10/14 07:02:39;;;;;;;7.18;1.73;;;;;;;;;;5013085;28;20037;-74
2023/10/14 07:05:05;;;;;;;11.07;2.97;;;;;;;;;;5004083;28;20850;-74
2023/10/14 07:07:32;;;;;;;13.38;3.03;;;;;;;;;;5000071;28;20057;-75
2023/10/14 07:09:59;;;;;;;8.32;1.98;;;;;;;;;;4991099;28;20046;-74
2023/10/14 07:12:25;;;;;;;14.75;2.05;;;;;;;;;;5000529;28;20137;-74
2023/10/14 07:14:50;;;;;;;7.05;1.70;;;;;;;;;;5002161;28;20202;-74
2023/10/14 07:17:22;;;;;;;5.35;1.83;;;;;;;;;;4995241;28;20559;-74
2023/10/14 07:19:48;;;;;;;4.47;1.35;;;;;;;;;;4996431;28;20046;-75
2023/10/14 07:22:15;;;;;;;8.93;1.60;;;;;;;;;;5003394;28;20034;-74
2023/10/14 07:24:41;;;;;;;6.05;1.35;;;;;;;;;;5002172;28;20500;-74
2023/10/14 07:27:06;;;;;;;9.30;1.85;;;;;;;;;;5003293;28;20568;-74
2023/10/14 07:29:32;;;;;;;11.88;2.15;;;;;;;;;;5000869;28;20493;-74
2023/10/14 07:31:58;;;;;;;11.63;2.08;;;;;;;;;;5001818;28;20030;-74
2023/10/14 07:34:23;;;;;;;15.70;2.25;;;;;;;;;;5001098;28;20037;-74
2023/10/14 07:36:51;;;;;;;9.95;2.05;;;;;;;;;;5002838;28;20052;-73
2023/10/14 07:39:28;;;;;;;12.60;2.60;;;;;;;;;;5002637;28;20034;-73
2023/10/14 07:41:54;;;;;;;9.27;1.90;;;;;;;;;;5004015;28;20067;-74
2023/10/14 07:44:22;;;;;;;7.88;1.58;;;;;;;;;;5001777;28;20018;-74
2023/10/14 07:46:49;;;;;;;6.88;2.00;;;;;;;;;;5001580;28;20424;-74
2023/10/14 07:49:15;;;;;;;16.42;2.35;;;;;;;;;;5000948;28;20111;-74
2023/10/14 07:51:42;;;;;;;6.95;1.55;;;;;;;;;;4994748;28;21049;-74
2023/10/14 07:54:08;;;;;;;11.70;1.80;;;;;;;;;;4992185;28;20501;-74
2023/10/14 07:56:33;;;;;;;9.43;1.85;;;;;;;;;;5012190;28;20547;-74
2023/10/14 07:59:01;;;;;;;7.90;1.95;;;;;;;;;;4986925;28;20113;-74
2023/10/14 08:01:26;;;;;;;6.47;1.73;;;;;;;;;;4983750;28;20110;-74
2023/10/14 08:03:56;;;;;;;10.65;2.30;;;;;;;;;;4982544;28;20472;-74
2023/10/14 08:06:22;;;;;;;8.73;1.73;;;;;;;;;;4984811;28;20524;-74
2023/10/14 08:08:47;;;;;;;8.10;2.15;;;;;;;;;;4999694;28;20045;-74
2023/10/14 08:11:14;;;;;;;10.80;2.92;;;;;;;;;;4997350;28;20111;-74
2023/10/14 08:13:40;;;;;;;9.48;2.03;;;;;;;;;;4997850;28;20038;-74
2023/10/14 08:16:07;;;;;;;9.30;2.17;;;;;;;;;;5002293;28;20042;-74
2023/10/14 08:18:34;;;;;;;11.90;2.08;;;;;;;;;;5010168;28;20041;-74
2023/10/14 08:20:59;;;;;;;7.18;2.22;;;;;;;;;;5015668;28;20041;-75
2023/10/14 08:23:27;;;;;;;5.75;1.67;;;;;;;;;;4997822;28;20025;-75
2023/10/14 08:25:55;;;;;;;11.43;2.58;;;;;;;;;;4999036;28;20017;-75
2023/10/14 08:28:24;;;;;;;10.65;2.13;;;;;;;;;;4988895;28;20137;-75
2023/10/14 08:30:50;;;;;;;11.52;1.90;;;;;;;;;;4989424;28;20050;-74
2023/10/14 08:33:21;;;;;;;12.50;2.08;;;;;;;;;;4982711;28;20057;-74
2023/10/14 08:35:48;;;;;;;10.57;2.35;;;;;;;;;;4980970;28;20054;-74
2023/10/14 08:38:17;;;;;;;14.35;2.53;;;;;;;;;;4982812;28;20045;-74
2023/10/14 08:40:44;;;;;;;11.13;2.50;;;;;;;;;;4982339;28;20746;-73
2023/10/14 08:43:19;;;;;;;10.40;2.40;;;;;;;;;;4982541;28;20038;-73
2023/10/14 08:45:47;;;;;;;8.48;2.05;;;;;;;;;;4983476;28;20041;-74
2023/10/14 08:48:15;;;;;;;5.93;1.55;;;;;;;;;;4981924;28;20122;-73
2023/10/14 08:50:41;;;;;;;6.75;2.10;;;;;;;;;;4997856;28;20517;-73
2023/10/14 08:53:08;;;;;;;14.90;2.13;;;;;;;;;;4986637;28;20084;-73
2023/10/14 08:55:34;;;;;;;11.00;2.95;;;;;;;;;;4988098;28;20901;-74
2023/10/14 08:58:04;;;;;;;8.00;1.75;;;;;;;;;;4996747;28;20073;-73
2023/10/14 09:00:31;;;;;;;9.65;2.33;;;;;;;;;;4989391;28;20026;-73
2023/10/14 09:03:00;;;;;;;10.38;1.88;;;;;;;;;;5003632;28;20034;-74
2023/10/14 09:05:26;;;;;;;10.73;2.33;;;;;;;;;;5010595;28;20038;-73
2023/10/14 09:07:55;;;;;;;12.60;2.00;;;;;;;;;;4992492;28;20083;-74
2023/10/14 09:10:24;;;;;;;6.43;1.52;;;;;;;;;;4989034;28;20129;-73
2023/10/14 09:13:00;;;;;;;11.23;1.98;;;;;;;;;;4996948;28;20556;-73
2023/10/14 09:15:31;;;;;;;9.93;2.05;;;;;;;;;;5006054;28;20059;-73
2023/10/14 09:17:57;;;;;;;8.77;1.48;;;;;;;;;;5005817;28;20037;-74
2023/10/14 09:20:37;;;;;;;13.27;1.88;;;;;;;;;;5003974;28;20025;-73
2023/10/14 09:23:19;;;;;;;10.13;2.00;;;;;;;;;;5006943;28;20056;-74
2023/10/14 09:25:49;;;;;;;6.43;1.50;;;;;;;;;;5003574;28;20121;-73
2023/10/14 09:28:16;;;;;;;8.60;1.65;;;;;;;;;;4997659;28;20054;-73
2023/10/14 09:30:49;;;;;;;5.93;1.58;;;;;;;;;;4994997;28;20133;-73
2023/10/14 09:33:17;;;;;;;11.30;1.95;;;;;;;;;;5006368;28;20508;-73
2023/10/14 09:35:50;;;;;;;8.50;2.17;;;;;;;;;;5006343;28;20030;-73
2023/10/14 09:38:22;;;;;;;7.45;1.92;;;;;;;;;;5008891;28;20076;-73
2023/10/14 09:40:54;;;;;;;6.13;1.70;;;;;;;;;;5019404;28;20390;-74
2023/10/14 09:43:27;;;;;;;7.13;1.77;;;;;;;;;;5022619;28;20038;-74
2023/10/14 09:45:57;;;;;;;7.88;1.75;;;;;;;;;;5006026;28;20117;-75
2023/10/14 09:48:34;;;;;;;11.20;1.92;;;;;;;;;;5004136;28;20042;-75
2023/10/14 09:51:01;;;;;;;10.98;1.50;;;;;;;;;;5004211;28;20045;-75
2023/10/14 09:53:34;;;;;;;16.40;1.60;;;;;;;;;;5005762;28;20036;-75
2023/10/14 09:56:07;;;;;;;16.63;1.65;;;;;;;;;;5003398;28;20046;-75
2023/10/14 09:58:34;;;;;;;9.48;1.90;;;;;;;;;;4988775;28;20526;-74
2023/10/14 10:01:05;;;;;;;12.32;1.83;;;;;;;;;;4985194;28;20026;-75
2023/10/14 10:03:44;;;;;;;7.80;1.60;;;;;;;;;;4985091;28;20477;-75
2023/10/14 10:06:35;;;;;;;12.43;2.28;;;;;;;;;;5000083;28;20042;-75
2023/10/14 10:09:19;;;;;;;5.95;1.60;;;;;;;;;;5003167;28;20053;-74
2023/10/14 10:11:48;;;;;;;6.90;1.52;;;;;;;;;;5003658;28;20056;-75
2023/10/14 10:14:17;;;;;;;7.65;2.03;;;;;;;;;;5004869;28;20412;-75
2023/10/14 10:16:46;;;;;;;9.00;2.10;;;;;;;;;;5003960;28;20096;-75
2023/10/14 10:19:13;;;;;;;11.13;2.22;;;;;;;;;;5004735;28;20067;-75
2023/10/14 10:21:43;;;;;;;14.15;2.35;;;;;;;;;;5000710;28;20034;-76
2023/10/14 10:24:17;;;;;;;11.63;1.92;;;;;;;;;;5001070;28;20037;-76
2023/10/14 10:26:59;;;;;;;8.40;1.85;;;;;;;;;;5001133;28;20042;-76
2023/10/14 10:29:25;;;;;;;4.07;1.25;;;;;;;;;;5002626;28;20038;-76
2023/10/14 10:32:20;;;;;;;6.75;1.63;;;;;;;;;;5004576;28;20189;-76
2023/10/14 10:35:08;;;;;;;8.77;1.55;;;;;;;;;;4995322;28;20528;-76
2023/10/14 10:37:35;;;;;;;10.25;2.08;;;;;;;;;;4983437;28;20035;-76
2023/10/14 10:40:10;;;;;;;7.28;1.60;;;;;;;;;;4983793;28;20540;-76
2023/10/14 10:42:45;;;;;;;8.00;1.88;;;;;;;;;;4984642;28;20030;-75
2023/10/14 10:45:40;;;;;;;8.30;2.10;;;;;;;;;;4982910;28;20030;-75
2023/10/14 10:48:07;;;;;;;10.25;2.03;;;;;;;;;;4966560;28;20634;-75
2023/10/14 10:50:37;;;;;;;8.48;1.92;;;;;;;;;;4982506;28;20118;-74
2023/10/14 10:53:05;;;;;;;12.73;2.35;;;;;;;;;;4999926;28;20030;-75
2023/10/14 10:55:31;;;;;;;5.47;1.63;;;;;;;;;;4984645;28;20044;-75
2023/10/14 10:58:03;;;;;;;11.32;2.55;;;;;;;;;;4999885;28;20044;-75
2023/10/14 11:00:32;;;;;;;8.57;1.88;;;;;;;;;;5002593;28;20026;-75
2023/10/14 11:02:58;;;;;;;8.80;2.35;;;;;;;;;;5000704;28;20042;-75
2023/10/14 11:05:27;;;;;;;13.50;2.67;;;;;;;;;;4987366;28;20590;-74
2023/10/14 11:07:53;;;;;;;8.27;2.00;;;;;;;;;;4984346;28;20022;-75
2023/10/14 11:10:23;;;;;;;10.85;2.40;;;;;;;;;;4998584;28;20041;-75
2023/10/14 11:12:49;;;;;;;17.08;2.20;;;;;;;;;;5002188;28;20044;-75
2023/10/14 11:15:19;;;;;;;16.95;2.42;;;;;;;;;;5002974;28;20034;-75
2023/10/14 11:17:46;;;;;;;5.82;1.80;;;;;;;;;;5003733;28;20113;-74
2023/10/14 11:20:15;;;;;;;9.35;2.63;;;;;;;;;;5003294;28;20500;-75
2023/10/14 11:22:41;;;;;;;10.82;2.67;;;;;;;;;;5003321;28;20061;-75
2023/10/14 11:25:07;;;;;;;13.93;2.67;;;;;;;;;;5003497;28;20513;-75
2023/10/14 11:27:33;;;;;;;6.90;1.92;;;;;;;;;;5003692;28;20041;-75
2023/10/14 11:29:58;;;;;;;7.55;2.20;;;;;;;;;;5003234;28;20045;-75
2023/10/14 11:32:25;;;;;;;10.90;2.30;;;;;;;;;;5003341;28;20395;-75
2023/10/14 11:34:52;;;;;;;7.47;2.65;;;;;;;;;;5013432;28;20017;-74
2023/10/14 11:37:18;;;;;;;7.55;2.03;;;;;;;;;;5003246;28;20065;-74
2023/10/14 11:39:45;;;;;;;4.97;1.40;;;;;;;;;;5002558;28;20239;-75
2023/10/14 11:42:13;;;;;;;5.40;1.63;;;;;;;;;;5001876;28;20034;-75
2023/10/14 11:44:38;;;;;;;7.75;1.60;;;;;;;;;;4998099;28;20113;-76
2023/10/14 11:47:07;;;;;;;3.78;1.00;;;;;;;;;;4996743;28;20117;-74
2023/10/14 11:49:35;;;;;;;5.25;1.27;;;;;;;;;;4982100;28;20903;-75
2023/10/14 11:52:00;;;;;;;4.28;1.20;;;;;;;;;;4983524;28;20035;-75
2023/10/14 11:54:25;;;;;;;7.72;1.77;;;;;;;;;;4997445;28;20060;-75
2023/10/14 11:56:51;;;;;;;4.90;1.20;;;;;;;;;;4999920;28;20078;-75
2023/10/14 11:59:16;;;;;;;5.68;1.08;;;;;;;;;;4995065;28;20026;-75
2023/10/14 12:01:45;;;;;;;5.55;1.60;;;;;;;;;;5010156;28;20018;-75
2023/10/14 12:04:11;;;;;;;5.13;1.38;;;;;;;;;;5001925;28;20099;-75
2023/10/14 12:06:37;;;;;;;3.20;1.60;;;;;;;;;;4994833;28;20394;-75
2023/10/14 12:09:05;;;;;;;5.47;1.60;;;;;;;;;;4999516;28;20611;-75
2023/10/14 12:11:43;;;;;;;4.40;1.30;;;;;;;;;;4999255;28;20025;-75
2023/10/14 12:14:11;;;;;;;5.97;1.70;;;;;;;;;;4995661;28;20029;-75
2023/10/14 12:16:37;;;;;;;5.15;1.30;;;;;;;;;;4995953;28;20038;-75
2023/10/14 12:19:03;;;;;;;5.15;1.50;;;;;;;;;;5004084;28;20052;-75
2023/10/14 12:21:28;;;;;;;6.15;1.60;;;;;;;;;;5014611;28;20034;-75
2023/10/14 12:23:56;;;;;;;5.57;1.77;;;;;;;;;;5014645;28;20026;-75
2023/10/14 12:26:22;;;;;;;9.85;1.65;;;;;;;;;;5007795;28;20099;-75
2023/10/14 12:28:49;;;;;;;4.45;1.73;;;;;;;;;;5005847;28;20037;-75
2023/10/14 12:31:14;;;;;;;2.67;1.45;;;;;;;;;;4999362;28;20046;-75
2023/10/14 12:33:41;;;;;;;7.55;1.77;;;;;;;;;;5004445;28;20041;-74
2023/10/14 12:36:17;;;;;;;6.60;1.65;;;;;;;;;;5000763;28;20030;-74
2023/10/14 12:38:45;;;;;;;8.05;1.90;;;;;;;;;;4994313;28;20042;-75
2023/10/14 12:41:13;;;;;;;11.90;1.90;;;;;;;;;;5000634;28;20025;-75
2023/10/14 12:43:42;;;;;;;7.50;1.63;;;;;;;;;;5005256;28;20067;-75
2023/10/14 12:48:45;;;;;;;3.65;1.70;;;;;;;;;;5004333;28;20084;-75
2023/10/14 12:51:25;;;;;;;8.10;1.90;;;;;;;;;;5004016;28;20534;-74
2023/10/14 12:53:51;;;;;;;8.75;2.13;;;;;;;;;;5002028;28;20495;-74
2023/10/14 12:56:22;;;;;;;6.38;1.80;;;;;;;;;;4997161;28;20042;-74
2023/10/14 12:58:49;;;;;;;5.97;1.63;;;;;;;;;;5002737;28;20029;-74
2023/10/14 13:01:17;;;;;;;9.10;2.85;;;;;;;;;;4997771;28;20030;-74
2023/10/14 13:03:52;;;;;;;4.50;1.60;;;;;;;;;;4997569;28;20046;-74
2023/10/14 13:06:23;;;;;;;11.38;2.13;;;;;;;;;;5002345;28;20915;-74
2023/10/14 13:09:00;;;;;;;7.97;1.80;;;;;;;;;;4998973;28;20038;-74
2023/10/14 13:11:28;;;;;;;12.02;2.20;;;;;;;;;;5001151;28;20053;-74
2023/10/14 13:13:54;;;;;;;7.32;1.92;;;;;;;;;;5002404;28;20184;-74
2023/10/14 13:16:20;;;;;;;5.65;1.88;;;;;;;;;;5003902;28;20166;-74
2023/10/14 13:18:49;;;;;;;12.10;2.25;;;;;;;;;;4992174;28;20038;-74
2023/10/14 13:21:18;;;;;;;4.25;1.42;;;;;;;;;;4982769;28;20117;-74
2023/10/14 13:23:44;;;;;;;11.65;1.63;;;;;;;;;;4987391;28;20116;-74
2023/10/14 13:26:10;;;;;;;4.60;1.80;;;;;;;;;;5000132;28;20037;-74
2023/10/14 13:28:36;;;;;;;5.22;1.27;;;;;;;;;;4988723;28;20041;-74
2023/10/14 13:31:04;;;;;;;7.85;1.55;;;;;;;;;;5000339;28;20630;-74
2023/10/14 13:33:30;;;;;;;4.93;1.73;;;;;;;;;;5003015;28;20048;-74
2023/10/14 13:35:56;;;;;;;12.50;2.20;;;;;;;;;;5001211;28;20077;-74
2023/10/14 13:38:22;;;;;;;7.70;1.90;;;;;;;;;;4996738;28;20044;-74
2023/10/14 13:40:49;;;;;;;6.40;1.25;;;;;;;;;;5004531;28;20034;-74
2023/10/14 13:43:15;;;;;;;6.97;1.55;;;;;;;;;;5000406;28;20160;-74
2023/10/14 13:45:41;;;;;;;5.88;1.50;;;;;;;;;;4994221;28;20133;-74
2023/10/14 13:48:08;;;;;;;3.90;1.00;;;;;;;;;;4986030;28;20050;-74
2023/10/14 13:50:37;;;;;;;4.30;1.20;;;;;;;;;;5000516;28;20769;-74
2023/10/14 13:53:09;;;;;;;5.15;1.10;;;;;;;;;;4998619;28;20518;-74
2023/10/14 13:55:38;;;;;;;3.60;1.10;;;;;;;;;;4990703;28;20516;-74
2023/10/14 13:58:08;;;;;;;6.18;1.27;;;;;;;;;;4999665;28;20050;-74
2023/10/14 14:00:36;;;;;;;9.82;1.20;;;;;;;;;;4999554;28;20723;-74
2023/10/14 14:03:04;;;;;;;7.70;3.22;;;;;;;;;;5002926;28;20048;-74
2023/10/14 14:05:29;;;;;;;4.20;1.20;;;;;;;;;;5002325;28;20133;-74
2023/10/14 14:07:55;;;;;;;6.93;1.35;;;;;;;;;;5000530;28;20124;-74
2023/10/14 14:10:21;;;;;;;5.18;1.20;;;;;;;;;;5000337;28;20033;-74
2023/10/14 14:12:46;;;;;;;4.88;1.27;;;;;;;;;;5002138;28;20424;-74
2023/10/14 14:15:14;;;;;;;3.50;1.40;;;;;;;;;;5000402;28;20033;-74
2023/10/14 14:17:40;;;;;;;5.30;1.40;;;;;;;;;;4998237;28;20046;-74
2023/10/14 14:20:07;;;;;;;3.85;1.10;;;;;;;;;;4996709;28;20523;-74
2023/10/14 14:22:33;;;;;;;4.60;1.30;;;;;;;;;;4997904;28;20046;-74
2023/10/14 14:24:59;;;;;;;6.30;1.27;;;;;;;;;;5000593;28;20034;-74
2023/10/14 14:27:24;;;;;;;5.75;1.30;;;;;;;;;;4999912;28;20045;-74
2023/10/14 14:29:53;;;;;;;6.05;1.00;;;;;;;;;;5001108;28;20037;-74
2023/10/14 14:32:20;;;;;;;3.25;1.10;;;;;;;;;;5001371;28;20021;-74
2023/10/14 14:34:46;;;;;;;4.13;0.90;;;;;;;;;;5000659;28;20068;-74
2023/10/14 14:37:12;;;;;;;3.70;1.20;;;;;;;;;;5001874;28;20096;-74
2023/10/14 14:39:40;;;;;;;4.45;1.30;;;;;;;;;;5001302;28;20750;-74
2023/10/14 14:42:10;;;;;;;3.17;1.00;;;;;;;;;;5000096;28;20045;-75
2023/10/14 14:44:38;;;;;;;4.47;0.90;;;;;;;;;;5001346;28;20879;-74
2023/10/14 14:47:04;;;;;;;1.48;0.85;;;;;;;;;;5002258;28;20026;-75
2023/10/14 14:49:29;;;;;;;5.18;1.02;;;;;;;;;;4999851;28;20038;-74
2023/10/14 14:51:55;;;;;;;4.00;0.95;;;;;;;;;;4999333;28;20070;-74
2023/10/14 14:54:22;;;;;;;5.97;1.00;;;;;;;;;;5002264;28;20030;-74
2023/10/14 14:56:47;;;;;;;4.45;1.05;;;;;;;;;;5001593;28;20912;-75
2023/10/14 14:59:13;;;;;;;4.03;0.90;;;;;;;;;;4988777;28;20026;-74
2023/10/14 15:01:41;;;;;;;4.65;0.88;;;;;;;;;;5000266;28;20404;-74
2023/10/14 15:04:07;;;;;;;5.05;0.93;;;;;;;;;;5009873;28;20550;-74
2023/10/14 15:06:34;;;;;;;6.68;1.33;;;;;;;;;;5008958;28;20038;-74
2023/10/14 15:09:00;;;;;;;5.20;1.50;;;;;;;;;;5005081;28;20072;-74
2023/10/14 15:11:25;;;;;;;4.32;1.20;;;;;;;;;;5002472;28;20030;-74
2023/10/14 15:13:51;;;;;;;5.95;1.10;;;;;;;;;;5001069;28;20030;-74
2023/10/14 15:16:16;;;;;;;4.32;0.80;;;;;;;;;;5000665;28;20084;-74
2023/10/14 15:18:41;;;;;;;2.53;0.85;;;;;;;;;;4997234;28;20121;-74
2023/10/14 15:21:07;;;;;;;3.13;1.20;;;;;;;;;;4994863;28;20476;-74
2023/10/14 15:23:32;;;;;;;2.35;0.80;;;;;;;;;;4986254;28;20088;-74